Repto Anaida CT, Puerto Rico
Current Conditions -  °F | °C
As of 12:50 PM on Tuesday 27 Jan 2015 (Local Time) from TJMZ Reporting Station
Broken Clouds Broken Clouds  
Wind Chill: 81°   Ceiling: 3000
Heat Index: 85°   Visibility: 10mi
Dew Point: 72°   Wind: 6mph
Humidity: 74%   Direction: 70°ENE
Pressure: 30.04"   Gusts: NA
Location:  18.0093°N, 66.6209°W
Report Text: TJMZ 271650Z 07005KT 10SM BKN030 27/22 A3004
Loading
Personal Weather Stations






























Interactive Weather Map New forecast layout! Learn more

10-Day Weather Forecast

Advertisements
Track Severe Weather on mobile